Time;durP1;ratioP1;P1;durP2;ratioP2;P2;SDS_P1;SDS_P2;PMS_P1;PMS_P2;Temp;Humidity;BMP_temperature;BMP_pressure;BME280_temperature;BME280_humidity;BME280_pressure;Samples;Min_cycle;Max_cycle;Signal;HPM_P1;HPM_P2
2022/07/06 00:01:51;;;;;;;8.60;3.38;;;13.90;99.90;;;;;;4916191;29;20028;-69
2022/07/06 00:04:17;;;;;;;5.47;3.25;;;13.90;99.90;;;;;;4929288;29;20019;-70
2022/07/06 00:06:42;;;;;;;6.28;2.90;;;13.80;99.90;;;;;;4934854;29;20035;-68
2022/07/06 00:09:08;;;;;;;6.18;3.50;;;13.90;99.90;;;;;;4935040;29;20034;-68
2022/07/06 00:11:34;;;;;;;6.10;3.40;;;13.70;99.90;;;;;;4934938;29;20032;-68
2022/07/06 00:13:59;;;;;;;9.98;3.60;;;13.60;99.90;;;;;;4934654;29;20150;-68
2022/07/06 00:16:25;;;;;;;9.82;3.50;;;13.50;99.90;;;;;;4935032;29;20288;-68
2022/07/06 00:18:50;;;;;;;8.30;3.88;;;13.60;99.90;;;;;;4917846;29;20024;-68
2022/07/06 00:21:16;;;;;;;6.60;3.60;;;13.60;99.90;;;;;;4935287;29;20034;-68
2022/07/06 00:23:42;;;;;;;7.50;3.42;;;13.60;99.90;;;;;;4934606;29;20023;-68
2022/07/06 00:26:07;;;;;;;7.50;3.72;;;13.60;99.90;;;;;;4935072;29;20059;-68
2022/07/06 00:28:33;;;;;;;9.63;4.03;;;13.50;99.90;;;;;;4934806;29;20031;-68
2022/07/06 00:30:58;;;;;;;9.70;4.05;;;13.40;99.90;;;;;;4934915;29;20035;-68
2022/07/06 00:33:24;;;;;;;15.00;5.20;;;13.30;99.90;;;;;;4935021;29;20052;-68
2022/07/06 00:35:49;;;;;;;8.50;3.70;;;13.30;99.90;;;;;;4934501;29;20432;-68
2022/07/06 00:38:15;;;;;;;14.88;5.32;;;13.20;99.90;;;;;;4935301;29;20032;-68
2022/07/06 00:40:40;;;;;;;8.65;4.10;;;13.20;99.90;;;;;;4938244;29;20024;-68
2022/07/06 00:43:06;;;;;;;16.73;4.47;;;13.10;99.90;;;;;;4938088;29;20042;-68
2022/07/06 00:45:31;;;;;;;9.85;4.22;;;13.00;99.90;;;;;;4938167;29;20028;-68
2022/07/06 00:47:57;;;;;;;8.85;3.70;;;13.00;99.90;;;;;;4937766;29;20499;-68
2022/07/06 00:50:22;;;;;;;7.45;4.18;;;13.00;99.90;;;;;;4938421;29;20396;-69
2022/07/06 00:52:55;;;;;;;7.65;4.30;;;13.00;99.90;;;;;;4938098;29;20055;-69
2022/07/06 00:55:25;;;;;;;10.98;4.22;;;12.90;99.90;;;;;;4920963;29;20035;-69
2022/07/06 00:57:51;;;;;;;8.73;3.92;;;12.80;99.90;;;;;;4937726;29;20036;-69
2022/07/06 01:00:18;;;;;;;7.38;3.85;;;12.80;99.90;;;;;;4920846;29;20027;-69
2022/07/06 01:02:44;;;;;;;8.23;3.95;;;12.80;99.90;;;;;;4937616;29;20087;-69
2022/07/06 01:05:10;;;;;;;9.30;4.60;;;12.70;99.90;;;;;;4937801;29;20032;-69
2022/07/06 01:07:36;;;;;;;11.40;4.10;;;12.70;99.90;;;;;;4937056;29;20040;-68
2022/07/06 01:10:05;;;;;;;6.68;4.20;;;12.70;99.90;;;;;;4937553;29;20031;-68
2022/07/06 01:12:31;;;;;;;8.15;4.38;;;12.60;99.90;;;;;;4937503;29;20040;-68
2022/07/06 01:14:56;;;;;;;7.63;4.40;;;12.60;99.90;;;;;;4931644;29;20052;-68
2022/07/06 01:17:22;;;;;;;9.02;4.55;;;12.60;99.90;;;;;;4937525;29;20031;-68
2022/07/06 01:19:47;;;;;;;12.23;4.53;;;12.60;99.90;;;;;;4935886;29;20513;-70
2022/07/06 01:22:13;;;;;;;12.90;4.40;;;12.60;99.90;;;;;;4937921;29;20382;-71
2022/07/06 01:24:38;;;;;;;12.68;3.97;;;12.50;99.90;;;;;;4937625;29;20393;-68
2022/07/06 01:27:04;;;;;;;11.50;4.53;;;12.60;99.90;;;;;;4937381;29;20109;-68
2022/07/06 01:29:30;;;;;;;7.00;4.65;;;12.50;99.90;;;;;;4937589;29;20036;-67
2022/07/06 01:31:55;;;;;;;7.90;4.68;;;12.50;99.90;;;;;;4936004;29;20027;-68
2022/07/06 01:34:21;;;;;;;8.30;4.45;;;12.60;99.90;;;;;;4937401;29;20027;-68
2022/07/06 01:36:47;;;;;;;8.23;4.72;;;12.50;99.90;;;;;;4937016;29;20035;-67
2022/07/06 01:39:12;;;;;;;11.82;4.57;;;12.40;99.90;;;;;;4937141;29;20087;-68
2022/07/06 01:41:38;;;;;;;12.48;4.93;;;12.40;99.90;;;;;;4937397;29;20036;-68
2022/07/06 01:44:04;;;;;;;10.43;4.57;;;12.30;99.90;;;;;;4937215;29;20036;-68
2022/07/06 01:46:29;;;;;;;6.70;4.60;;;12.40;99.90;;;;;;4937128;29;20023;-67
2022/07/06 01:48:54;;;;;;;7.70;4.35;;;12.50;99.90;;;;;;4937006;29;20035;-67
2022/07/06 01:51:20;;;;;;;12.20;4.63;;;12.50;99.90;;;;;;4936495;29;20084;-75
2022/07/06 01:53:46;;;;;;;9.85;4.15;;;13.60;99.90;;;;;;4935972;29;20039;-70
2022/07/06 01:56:11;;;;;;;10.82;4.65;;;12.50;99.90;;;;;;4936018;29;20024;-69
2022/07/06 01:58:37;;;;;;;9.32;4.53;;;12.60;99.90;;;;;;4935099;29;20369;-70
2022/07/06 02:01:17;;;;;;;8.70;4.68;;;12.40;99.90;;;;;;4936696;29;20047;-69
2022/07/06 02:03:42;;;;;;;6.70;4.93;;;12.40;99.90;;;;;;4936254;29;20112;-69
2022/07/06 02:06:08;;;;;;;7.15;3.95;;;12.40;99.90;;;;;;4936495;29;20111;-69
2022/07/06 02:08:34;;;;;;;7.03;4.47;;;12.40;99.90;;;;;;4935479;29;20041;-70
2022/07/06 02:10:59;;;;;;;12.77;4.95;;;12.50;99.90;;;;;;4936504;29;20031;-69
2022/07/06 02:13:25;;;;;;;14.90;5.07;;;12.40;99.90;;;;;;4936242;29;20559;-72
2022/07/06 02:15:51;;;;;;;6.47;3.65;;;12.50;99.90;;;;;;4936384;29;20384;-69
2022/07/06 02:18:16;;;;;;;11.68;5.10;;;12.50;99.90;;;;;;4936296;29;20032;-69
2022/07/06 02:20:42;;;;;;;17.38;5.88;;;12.50;99.90;;;;;;4936581;29;20032;-69
2022/07/06 02:23:07;;;;;;;9.55;4.45;;;12.60;99.90;;;;;;4935996;29;20061;-70
2022/07/06 02:25:33;;;;;;;11.63;4.45;;;12.60;99.90;;;;;;4936516;29;20031;-70
2022/07/06 02:27:59;;;;;;;6.97;4.30;;;12.60;99.90;;;;;;4936266;29;20031;-69
2022/07/06 02:30:24;;;;;;;6.40;4.30;;;12.60;99.90;;;;;;4936283;29;20035;-73
2022/07/06 02:32:50;;;;;;;7.18;3.88;;;12.40;99.90;;;;;;4936027;29;20062;-69
2022/07/06 02:35:15;;;;;;;13.02;4.50;;;12.40;99.90;;;;;;4936190;29;20524;-69
2022/07/06 02:37:41;;;;;;;11.05;4.13;;;12.50;99.90;;;;;;4935665;29;20510;-71
2022/07/06 02:40:07;;;;;;;13.50;4.97;;;12.50;99.90;;;;;;4935755;29;20026;-69
2022/07/06 02:42:32;;;;;;;11.38;4.50;;;12.40;99.90;;;;;;4936055;29;20028;-71
2022/07/06 02:44:58;;;;;;;9.43;5.35;;;12.30;99.90;;;;;;4936183;29;20657;-69
2022/07/06 02:47:23;;;;;;;8.60;4.53;;;12.20;99.90;;;;;;4936207;29;20543;-69
2022/07/06 02:49:49;;;;;;;8.13;4.80;;;12.10;99.90;;;;;;4935103;29;20035;-71
2022/07/06 02:52:14;;;;;;;11.40;5.38;;;12.10;99.90;;;;;;4935717;29;20484;-70
2022/07/06 02:54:43;;;;;;;12.07;5.60;;;11.90;99.90;;;;;;4918890;29;20055;-70
2022/07/06 02:57:08;;;;;;;10.63;4.90;;;11.90;99.90;;;;;;4935603;29;20042;-70
2022/07/06 02:59:34;;;;;;;15.57;5.97;;;11.90;99.90;;;;;;4935788;29;20024;-70
2022/07/06 03:01:59;;;;;;;13.18;5.43;;;12.00;99.90;;;;;;4934762;29;20038;-69
2022/07/06 03:04:25;;;;;;;15.52;5.40;;;12.00;99.90;;;;;;4934383;29;20496;-69
2022/07/06 03:06:50;;;;;;;10.48;5.45;;;11.90;99.90;;;;;;4935446;29;20039;-70
2022/07/06 03:12:38;;;;;;;10.93;5.85;;;11.80;99.90;;;;;;4935827;29;20078;-71
2022/07/06 03:15:04;;;;;;;11.70;5.47;;;11.80;99.90;;;;;;4928193;29;20060;-70
2022/07/06 03:17:29;;;;;;;13.18;4.97;;;11.70;99.90;;;;;;4935531;29;20043;-69
2022/07/06 03:19:55;;;;;;;11.05;5.55;;;11.70;99.90;;;;;;4935377;29;20023;-69
2022/07/06 03:22:20;;;;;;;11.07;6.32;;;11.70;99.90;;;;;;4935435;29;20027;-69
2022/07/06 03:24:46;;;;;;;12.77;6.30;;;11.90;99.90;;;;;;4935534;29;20535;-69
2022/07/06 03:27:11;;;;;;;13.30;6.07;;;11.70;99.90;;;;;;4935813;29;20028;-70
2022/07/06 03:29:37;;;;;;;12.10;6.07;;;11.70;99.90;;;;;;4935321;29;20503;-68
2022/07/06 03:32:03;;;;;;;15.27;6.35;;;11.70;99.90;;;;;;4935819;29;20091;-72
2022/07/06 03:34:28;;;;;;;13.98;6.43;;;11.70;99.90;;;;;;4935196;29;20078;-70
2022/07/06 03:36:54;;;;;;;14.13;7.20;;;11.60;99.90;;;;;;4934858;29;20027;-68
2022/07/06 03:39:19;;;;;;;12.52;6.82;;;11.70;99.90;;;;;;4935160;29;20027;-71
2022/07/06 03:41:45;;;;;;;19.52;7.72;;;11.70;99.90;;;;;;4934561;29;20034;-68
2022/07/06 03:44:10;;;;;;;19.65;7.32;;;11.70;99.90;;;;;;4933678;29;20023;-72
2022/07/06 03:46:36;;;;;;;32.75;9.60;;;11.80;99.90;;;;;;4935092;29;20043;-74
2022/07/06 03:49:01;;;;;;;27.70;9.30;;;11.90;99.90;;;;;;4934475;29;20408;-71
2022/07/06 03:51:27;;;;;;;20.00;7.45;;;12.00;99.90;;;;;;4930920;29;20032;-69
2022/07/06 03:53:52;;;;;;;16.40;6.85;;;11.90;99.90;;;;;;4934304;29;20023;-69
2022/07/06 03:56:30;;;;;;;14.43;6.75;;;11.70;99.90;;;;;;4934698;29;20031;-72
2022/07/06 03:58:56;;;;;;;16.55;7.15;;;11.70;99.90;;;;;;4916313;29;20035;-69
2022/07/06 04:01:22;;;;;;;13.18;6.32;;;11.70;99.90;;;;;;4916525;29;20029;-70
2022/07/06 04:03:47;;;;;;;13.35;7.10;;;11.70;99.90;;;;;;4933890;29;20067;-70
2022/07/06 04:06:13;;;;;;;16.05;6.40;;;11.70;99.90;;;;;;4935270;29;20468;-71
2022/07/06 04:08:38;;;;;;;22.88;8.52;;;11.70;99.90;;;;;;4935062;29;20031;-71
2022/07/06 04:11:04;;;;;;;16.73;7.05;;;11.70;99.90;;;;;;4935080;29;20050;-70
2022/07/06 04:13:29;;;;;;;14.27;6.88;;;11.70;99.90;;;;;;4935565;29;20063;-71
2022/07/06 04:15:55;;;;;;;16.30;6.53;;;11.80;99.90;;;;;;4938225;29;20095;-69
2022/07/06 04:18:20;;;;;;;17.30;7.57;;;11.90;99.90;;;;;;4930875;29;20050;-70
2022/07/06 04:20:46;;;;;;;28.48;6.65;;;11.90;99.90;;;;;;4937951;29;20037;-71
2022/07/06 04:23:11;;;;;;;17.67;5.80;;;12.00;99.90;;;;;;4938741;29;20031;-69
2022/07/06 04:25:37;;;;;;;22.13;8.13;;;12.60;99.90;;;;;;4935053;29;20031;-69
2022/07/06 04:28:03;;;;;;;20.05;8.50;;;12.40;99.90;;;;;;4926960;29;20031;-68
2022/07/06 04:30:28;;;;;;;15.65;6.70;;;12.30;99.90;;;;;;4938797;29;20500;-68
2022/07/06 04:32:55;;;;;;;15.55;6.30;;;12.50;99.90;;;;;;4934970;29;20115;-68
2022/07/06 04:35:20;;;;;;;18.85;6.93;;;12.60;99.90;;;;;;4937194;29;20035;-70
2022/07/06 04:37:46;;;;;;;14.30;6.18;;;12.70;99.90;;;;;;4932599;29;20032;-68
2022/07/06 04:40:12;;;;;;;14.95;6.07;;;12.70;99.90;;;;;;4938414;29;20385;-69
2022/07/06 04:42:38;;;;;;;17.30;5.95;;;13.00;99.90;;;;;;4938455;29;20028;-68
2022/07/06 04:45:04;;;;;;;13.95;5.95;;;13.10;99.90;;;;;;4930656;29;20178;-70
2022/07/06 04:47:29;;;;;;;10.45;5.78;;;13.40;99.90;;;;;;4921614;29;20043;-70
2022/07/06 04:49:55;;;;;;;9.63;4.82;;;13.50;99.90;;;;;;4927919;29;20039;-70
2022/07/06 04:52:21;;;;;;;16.42;6.00;;;13.60;99.90;;;;;;4928971;29;20111;-70
2022/07/06 04:54:46;;;;;;;10.82;5.00;;;14.00;99.90;;;;;;4938113;29;20384;-69
2022/07/06 04:57:12;;;;;;;15.63;5.95;;;14.20;99.90;;;;;;4937944;29;20023;-69
2022/07/06 04:59:37;;;;;;;17.55;6.32;;;14.40;99.90;;;;;;4937107;29;20057;-70
2022/07/06 05:02:03;;;;;;;12.68;5.38;;;14.50;99.90;;;;;;4938015;29;20103;-69
2022/07/06 05:04:28;;;;;;;13.05;5.05;;;14.60;99.90;;;;;;4936669;29;20493;-69
2022/07/06 05:06:54;;;;;;;15.60;4.82;;;14.80;99.90;;;;;;4930284;29;20716;-69
2022/07/06 05:09:19;;;;;;;12.57;5.63;;;14.50;99.90;;;;;;4937315;29;20032;-69
2022/07/06 05:11:45;;;;;;;14.20;5.40;;;14.20;99.90;;;;;;4924167;29;20036;-70
2022/07/06 05:14:10;;;;;;;7.60;4.32;;;13.80;99.90;;;;;;4918631;29;20054;-69
2022/07/06 05:16:36;;;;;;;18.33;5.85;;;14.10;99.90;;;;;;4919069;29;20032;-69
2022/07/06 05:19:01;;;;;;;15.38;5.95;;;14.30;99.90;;;;;;4937813;29;20388;-70
2022/07/06 05:21:28;;;;;;;10.82;5.72;;;14.20;99.90;;;;;;4937851;29;20058;-69
2022/07/06 05:23:53;;;;;;;11.40;5.57;;;14.20;99.90;;;;;;4915955;29;20119;-69
2022/07/06 05:26:19;;;;;;;11.50;5.05;;;14.20;99.90;;;;;;4912951;29;20593;-72
2022/07/06 05:28:44;;;;;;;10.68;5.05;;;13.90;99.90;;;;;;4921939;29;20050;-74
2022/07/06 05:31:10;;;;;;;11.73;5.45;;;14.00;99.90;;;;;;4922834;29;20016;-70
2022/07/06 05:33:35;;;;;;;11.60;5.35;;;14.10;99.90;;;;;;4937302;29;20057;-69
2022/07/06 05:36:01;;;;;;;23.10;6.25;;;15.50;99.90;;;;;;4916282;29;20024;-69
2022/07/06 05:38:26;;;;;;;17.02;5.55;;;14.60;99.90;;;;;;4917431;29;20111;-70
2022/07/06 05:40:52;;;;;;;22.48;6.05;;;15.00;99.90;;;;;;4918740;29;20031;-71
2022/07/06 05:43:18;;;;;;;31.30;8.57;;;15.30;99.90;;;;;;4909662;29;20020;-70
2022/07/06 05:45:43;;;;;;;12.07;4.75;;;15.40;99.90;;;;;;4937172;29;20377;-70
2022/07/06 05:50:53;;;;;;;15.73;5.10;;;16.00;99.90;;;;;;4923125;29;20559;-74
2022/07/06 05:53:18;;;;;;;12.02;4.07;;;16.30;99.90;;;;;;4920038;29;20043;-71
2022/07/06 05:55:44;;;;;;;9.40;3.65;;;15.90;99.90;;;;;;4937237;29;20040;-70
2022/07/06 05:58:10;;;;;;;12.13;4.10;;;16.40;99.90;;;;;;4920025;29;20054;-70
2022/07/06 06:00:35;;;;;;;8.15;3.17;;;16.90;99.10;;;;;;4937224;29;20024;-70
2022/07/06 06:03:01;;;;;;;10.90;4.05;;;17.20;98.60;;;;;;4936480;29;20373;-71
2022/07/06 06:05:26;;;;;;;20.50;5.13;;;17.80;97.30;;;;;;4920183;29;20539;-71
2022/07/06 06:07:52;;;;;;;15.75;3.90;;;17.90;97.10;;;;;;4919964;29;20036;-71
2022/07/06 06:10:18;;;;;;;18.15;4.75;;;18.10;97.10;;;;;;4936834;29;20035;-68
2022/07/06 06:12:44;;;;;;;9.65;3.33;;;17.30;97.90;;;;;;4936849;29;20031;-69
2022/07/06 06:15:10;;;;;;;7.80;3.20;;;17.40;98.90;;;;;;4932415;29;20062;-69
2022/07/06 06:17:35;;;;;;;14.85;2.83;;;17.50;98.70;;;;;;4936749;29;20152;-69
2022/07/06 06:20:01;;;;;;;7.45;3.30;;;17.90;97.20;;;;;;4935496;29;20455;-69
2022/07/06 06:22:26;;;;;;;8.35;3.10;;;18.10;97.90;;;;;;4936557;29;20030;-68
2022/07/06 06:24:52;;;;;;;12.75;3.60;;;18.30;96.00;;;;;;4936514;29;20028;-68
2022/07/06 06:30:46;;;;;;;10.60;3.45;;;19.60;94.60;;;;;;4913749;29;20043;-73
2022/07/06 06:33:13;;;;;;;11.55;2.95;;;19.80;93.80;;;;;;4935171;29;20031;-76
2022/07/06 06:35:42;;;;;;;6.03;1.60;;;19.10;93.60;;;;;;4925171;29;20032;-75
2022/07/06 06:38:08;;;;;;;4.68;1.55;;;20.00;93.30;;;;;;4916974;29;20043;-71
2022/07/06 06:40:34;;;;;;;5.97;1.75;;;20.50;90.00;;;;;;4936266;29;20024;-71
2022/07/06 06:42:59;;;;;;;8.23;1.80;;;20.60;89.10;;;;;;4936288;29;20035;-70
2022/07/06 06:45:25;;;;;;;9.43;2.03;;;19.90;90.80;;;;;;4935685;29;20694;-73
2022/07/06 06:47:50;;;;;;;8.57;1.95;;;19.40;93.00;;;;;;4935091;29;20484;-72
2022/07/06 06:50:16;;;;;;;8.40;2.08;;;18.90;93.70;;;;;;4935684;29;20140;-72
2022/07/06 06:52:41;;;;;;;8.57;2.30;;;19.70;92.10;;;;;;4936233;29;20028;-71
2022/07/06 06:55:08;;;;;;;11.63;2.47;;;19.00;94.00;;;;;;4936055;29;20508;-72
2022/07/06 06:57:33;;;;;;;12.25;1.83;;;18.30;95.00;;;;;;4917163;29;20024;-71
2022/07/06 06:59:59;;;;;;;5.35;1.45;;;18.90;94.80;;;;;;4947821;29;20429;-70
2022/07/06 07:02:24;;;;;;;7.57;2.30;;;19.40;93.60;;;;;;4932275;29;20028;-70
2022/07/06 07:04:50;;;;;;;13.10;2.15;;;18.70;93.40;;;;;;4936007;29;20023;-71
2022/07/06 07:07:15;;;;;;;14.15;3.20;;;18.00;95.50;;;;;;4935994;29;20388;-71
2022/07/06 07:09:41;;;;;;;9.43;1.90;;;18.20;96.60;;;;;;4935808;29;20035;-72
2022/07/06 07:12:07;;;;;;;10.52;2.20;;;18.00;95.70;;;;;;4935569;29;20036;-70
2022/07/06 07:14:32;;;;;;;7.28;1.83;;;17.50;96.40;;;;;;4935635;29;20064;-70
2022/07/06 07:16:58;;;;;;;5.60;1.30;;;18.40;96.80;;;;;;4935749;29;20032;-70
2022/07/06 07:19:23;;;;;;;7.78;1.33;;;18.70;95.70;;;;;;4918976;29;20052;-70
2022/07/06 07:21:49;;;;;;;5.35;1.70;;;18.60;94.60;;;;;;4931666;29;20027;-70
2022/07/06 07:24:14;;;;;;;7.18;1.60;;;19.10;93.70;;;;;;4916688;29;20032;-70
2022/07/06 07:26:40;;;;;;;12.93;1.83;;;19.20;93.60;;;;;;4934482;29;20035;-71
2022/07/06 07:29:05;;;;;;;4.82;1.30;;;18.20;95.10;;;;;;4935701;29;20027;-71
2022/07/06 07:31:31;;;;;;;6.38;1.88;;;18.40;94.70;;;;;;4935917;29;20108;-70
2022/07/06 07:33:58;;;;;;;8.45;1.67;;;18.50;94.80;;;;;;4935642;29;20038;-70
2022/07/06 07:36:24;;;;;;;8.40;1.60;;;17.70;96.90;;;;;;4919012;29;20028;-71
2022/07/06 07:38:50;;;;;;;7.57;1.63;;;17.80;96.50;;;;;;4935750;29;20424;-69
2022/07/06 07:41:16;;;;;;;6.22;1.10;;;18.60;96.00;;;;;;4935520;29;20032;-70
2022/07/06 07:43:42;;;;;;;6.13;1.63;;;18.60;94.70;;;;;;4935573;29;20030;-69
2022/07/06 07:46:08;;;;;;;7.32;1.13;;;19.20;94.30;;;;;;4918559;29;20103;-70
2022/07/06 07:48:33;;;;;;;4.72;1.70;;;19.00;94.60;;;;;;4936484;29;20473;-70
2022/07/06 07:50:59;;;;;;;2.67;0.85;;;19.60;94.80;;;;;;4939576;29;20035;-70
2022/07/06 07:53:24;;;;;;;5.32;1.20;;;20.40;92.50;;;;;;4939467;29;20038;-70
2022/07/06 07:55:49;;;;;;;5.90;1.08;;;20.60;92.10;;;;;;4939444;29;20032;-70
2022/07/06 07:58:15;;;;;;;7.88;1.42;;;20.40;90.10;;;;;;4939171;29;20031;-70
2022/07/06 08:00:40;;;;;;;3.75;1.00;;;20.20;90.80;;;;;;4939407;29;20024;-69
2022/07/06 08:03:06;;;;;;;9.60;2.08;;;19.60;91.20;;;;;;4939180;29;20488;-69
2022/07/06 08:05:31;;;;;;;5.57;1.27;;;20.20;91.50;;;;;;4939197;29;20023;-69
2022/07/06 08:07:57;;;;;;;9.52;1.60;;;19.80;91.90;;;;;;4939063;29;20028;-69
2022/07/06 08:10:23;;;;;;;10.27;2.05;;;19.60;91.60;;;;;;4939101;29;20032;-69
2022/07/06 08:12:48;;;;;;;5.13;1.30;;;19.60;92.70;;;;;;4939037;29;20488;-69
2022/07/06 08:15:14;;;;;;;9.70;1.50;;;20.00;91.70;;;;;;4938839;29;20060;-70
2022/07/06 08:17:39;;;;;;;5.35;1.45;;;20.40;90.60;;;;;;4938973;29;20055;-69
2022/07/06 08:20:06;;;;;;;6.10;1.95;;;20.80;87.10;;;;;;4938876;29;20075;-70
2022/07/06 08:22:31;;;;;;;7.50;1.55;;;21.30;79.90;;;;;;4921964;29;20030;-70
2022/07/06 08:24:57;;;;;;;9.25;3.45;;;22.10;77.60;;;;;;4938843;29;20107;-70
2022/07/06 08:27:23;;;;;;;4.70;2.00;;;22.10;75.30;;;;;;4938853;29;20054;-70
2022/07/06 08:29:49;;;;;;;6.10;1.50;;;22.20;73.30;;;;;;4938945;29;20059;-70
2022/07/06 08:32:14;;;;;;;9.32;1.42;;;22.30;74.50;;;;;;4938743;29;20031;-71
2022/07/06 08:34:40;;;;;;;3.30;1.30;;;22.30;72.50;;;;;;4938849;29;20024;-71
2022/07/06 08:37:05;;;;;;;5.93;1.42;;;22.40;74.20;;;;;;4938581;29;20396;-71
2022/07/06 08:39:31;;;;;;;3.33;1.38;;;23.70;64.50;;;;;;4938596;29;20116;-71
2022/07/06 08:41:57;;;;;;;10.55;1.90;;;23.90;64.70;;;;;;4938526;29;20035;-72
2022/07/06 08:44:22;;;;;;;4.95;1.20;;;24.30;66.10;;;;;;4921499;29;20050;-72
2022/07/06 08:46:48;;;;;;;4.82;1.00;;;24.50;60.70;;;;;;4921663;29;20024;-72
2022/07/06 08:49:15;;;;;;;6.75;1.60;;;24.70;63.80;;;;;;4905736;29;20051;-72
2022/07/06 08:51:41;;;;;;;10.00;1.23;;;23.90;63.80;;;;;;4938530;29;20028;-72
2022/07/06 08:54:07;;;;;;;7.82;1.77;;;23.70;61.00;;;;;;4921236;29;20035;-70
2022/07/06 08:56:32;;;;;;;6.95;1.35;;;22.20;66.70;;;;;;4921476;29;20032;-71
2022/07/06 08:58:58;;;;;;;11.60;5.78;;;21.30;74.90;;;;;;4938067;29;20465;-71
2022/07/06 09:01:23;;;;;;;7.25;1.55;;;20.10;83.00;;;;;;4938226;29;20027;-71
2022/07/06 09:03:49;;;;;;;6.70;1.77;;;21.00;78.70;;;;;;4938133;29;20028;-72
2022/07/06 09:06:16;;;;;;;4.90;1.85;;;21.20;79.10;;;;;;4938263;29;20048;-71
2022/07/06 09:08:42;;;;;;;3.63;0.93;;;22.30;70.80;;;;;;4938115;29;20476;-71
2022/07/06 09:11:08;;;;;;;5.60;0.77;;;22.90;64.90;;;;;;4905485;29;20024;-71
2022/07/06 09:13:33;;;;;;;7.43;1.48;;;24.20;59.40;;;;;;4937919;29;20063;-72
2022/07/06 09:16:12;;;;;;;3.53;0.60;;;23.40;60.50;;;;;;4938107;29;20107;-72
2022/07/06 09:18:39;;;;;;;2.80;0.77;;;22.40;57.70;;;;;;4937982;29;20436;-74
2022/07/06 09:21:07;;;;;;;5.13;0.93;;;21.40;59.60;;;;;;4937859;29;20028;-72
2022/07/06 09:23:33;;;;;;;3.20;1.38;;;20.30;70.60;;;;;;4921437;29;20048;-71
2022/07/06 09:26:02;;;;;;;3.42;1.10;;;21.40;70.40;;;;;;4920801;29;20523;-72
2022/07/06 09:28:41;;;;;;;4.75;1.08;;;21.60;71.60;;;;;;4937856;29;20035;-71
2022/07/06 09:31:07;;;;;;;4.78;0.90;;;22.40;72.70;;;;;;4937653;29;20028;-71
2022/07/06 09:33:33;;;;;;;4.90;1.00;;;23.30;60.30;;;;;;4937713;29;20484;-71
2022/07/06 09:36:01;;;;;;;5.35;1.08;;;24.70;56.90;;;;;;4920526;29;20035;-71
2022/07/06 09:38:26;;;;;;;8.27;1.10;;;23.70;55.50;;;;;;4937662;29;20040;-71
2022/07/06 09:40:52;;;;;;;6.45;1.10;;;23.00;55.80;;;;;;4937598;29;20030;-71
2022/07/06 09:43:21;;;;;;;3.72;0.95;;;22.90;58.50;;;;;;4920508;29;20031;-71
2022/07/06 09:45:54;;;;;;;3.80;1.00;;;22.30;57.80;;;;;;4937472;29;20028;-71
2022/07/06 09:48:24;;;;;;;4.78;1.38;;;22.40;58.50;;;;;;4937351;29;20052;-71
2022/07/06 09:50:58;;;;;;;6.00;0.77;;;24.20;56.80;;;;;;4937393;29;20556;-71
2022/07/06 09:53:25;;;;;;;2.73;0.80;;;24.90;53.70;;;;;;4937427;29;20040;-71
2022/07/06 09:55:51;;;;;;;6.78;1.23;;;25.20;53.80;;;;;;4937312;29;20276;-71
2022/07/06 09:58:17;;;;;;;3.72;0.98;;;26.70;48.20;;;;;;4937123;29;20031;-71
2022/07/06 10:00:44;;;;;;;4.18;1.15;;;27.10;48.30;;;;;;4920347;29;20024;-71
2022/07/06 10:03:09;;;;;;;7.97;1.63;;;24.40;49.60;;;;;;4920297;29;20020;-71
2022/07/06 10:05:41;;;;;;;5.22;1.20;;;24.20;54.90;;;;;;4937137;29;20099;-72
2022/07/06 10:08:09;;;;;;;2.17;0.70;;;24.40;55.40;;;;;;4936980;29;20465;-72
2022/07/06 10:10:35;;;;;;;7.80;0.98;;;25.20;50.80;;;;;;4936950;29;20031;-71
2022/07/06 10:13:01;;;;;;;4.70;0.88;;;26.60;51.10;;;;;;4936505;29;20492;-71
2022/07/06 10:15:27;;;;;;;4.68;1.50;;;26.90;46.40;;;;;;4936675;29;20067;-72
2022/07/06 10:17:54;;;;;;;4.25;1.20;;;26.30;48.20;;;;;;4919893;29;20032;-71
2022/07/06 10:20:19;;;;;;;3.38;1.10;;;24.40;50.30;;;;;;4936723;29;20075;-71
2022/07/06 10:22:49;;;;;;;4.90;1.17;;;24.30;50.10;;;;;;4936884;29;20027;-71
2022/07/06 10:25:18;;;;;;;4.97;0.95;;;23.80;51.90;;;;;;4920073;29;20028;-71
2022/07/06 10:27:44;;;;;;;4.28;0.80;;;24.40;51.50;;;;;;4936984;29;20440;-71
2022/07/06 10:30:10;;;;;;;2.92;0.88;;;23.10;53.00;;;;;;4936669;29;20028;-71
2022/07/06 10:32:36;;;;;;;5.65;1.00;;;22.60;55.40;;;;;;4936705;29;20027;-71
2022/07/06 10:35:02;;;;;;;5.32;0.80;;;22.60;53.10;;;;;;4936479;29;20032;-71
2022/07/06 10:37:28;;;;;;;4.07;1.10;;;23.20;55.00;;;;;;4936455;29;20095;-72
2022/07/06 10:42:56;;;;;;;3.60;1.17;;;23.60;54.20;;;;;;4936564;29;20039;-71
2022/07/06 10:45:28;;;;;;;2.70;1.17;;;23.80;53.30;;;;;;4936396;29;20032;-71
2022/07/06 10:48:12;;;;;;;2.10;0.70;;;24.00;51.60;;;;;;4936465;29;20444;-71
2022/07/06 10:50:45;;;;;;;3.13;0.88;;;24.10;53.10;;;;;;4936399;29;20031;-71
2022/07/06 10:53:12;;;;;;;5.03;1.40;;;25.20;49.10;;;;;;4919633;29;20051;-71
2022/07/06 10:55:43;;;;;;;7.38;1.80;;;23.70;52.40;;;;;;4936314;29;20023;-73
2022/07/06 10:58:10;;;;;;;2.28;0.80;;;22.80;55.40;;;;;;4936046;29;20028;-73
2022/07/06 11:00:51;;;;;;;8.90;1.15;;;23.10;55.80;;;;;;4936055;29;20039;-73
2022/07/06 11:03:36;;;;;;;6.53;1.05;;;22.70;56.20;;;;;;4935237;29;20107;-72
2022/07/06 11:06:02;;;;;;;2.53;0.77;;;22.10;57.30;;;;;;4935665;29;20020;-72
2022/07/06 11:08:41;;;;;;;4.95;1.08;;;22.80;58.10;;;;;;4918415;29;20032;-74
2022/07/06 11:11:14;;;;;;;7.82;1.23;;;22.70;56.60;;;;;;4935510;29;20032;-71
2022/07/06 11:14:02;;;;;;;3.60;1.35;;;22.20;56.90;;;;;;4935317;29;20030;-71
2022/07/06 11:16:36;;;;;;;4.40;1.42;;;22.50;57.40;;;;;;4935314;29;20031;-71
2022/07/06 11:19:17;;;;;;;5.88;1.00;;;23.00;58.00;;;;;;4935580;29;20048;-72
2022/07/06 11:21:52;;;;;;;1.75;0.90;;;24.50;54.50;;;;;;4935492;29;20083;-71
2022/07/06 11:24:26;;;;;;;3.05;0.70;;;26.20;50.10;;;;;;4934309;29;20056;-72
2022/07/06 11:26:52;;;;;;;3.83;0.80;;;25.00;47.50;;;;;;4935296;29;20035;-71
2022/07/06 11:29:20;;;;;;;3.85;1.25;;;23.70;53.20;;;;;;4902552;29;20807;-71
2022/07/06 11:31:46;;;;;;;5.50;1.60;;;23.10;55.90;;;;;;4935270;29;20036;-71
2022/07/06 11:34:17;;;;;;;3.38;1.08;;;23.90;57.10;;;;;;4935162;29;20032;-71
2022/07/06 11:36:43;;;;;;;3.20;0.90;;;24.40;53.20;;;;;;4935197;29;20031;-71
2022/07/06 11:39:08;;;;;;;3.50;1.10;;;24.90;53.00;;;;;;4935131;29;20032;-71
2022/07/06 11:41:34;;;;;;;4.82;1.15;;;24.30;53.80;;;;;;4935272;29;20480;-71
2022/07/06 11:43:59;;;;;;;4.85;1.23;;;24.20;52.00;;;;;;4935190;29;20024;-72
2022/07/06 11:46:35;;;;;;;3.90;0.90;;;23.00;55.20;;;;;;4935253;29;20027;-72
2022/07/06 11:49:03;;;;;;;5.60;1.40;;;24.30;53.60;;;;;;4935244;29;20099;-72
2022/07/06 11:51:30;;;;;;;2.75;1.15;;;24.20;53.50;;;;;;4935027;29;20495;-71
2022/07/06 11:54:01;;;;;;;2.35;0.90;;;24.10;54.20;;;;;;4935188;29;20028;-71
2022/07/06 11:56:27;;;;;;;5.45;1.20;;;23.70;54.30;;;;;;4934908;29;20535;-72
2022/07/06 11:58:57;;;;;;;3.70;1.05;;;22.80;55.80;;;;;;4935043;29;20075;-73
2022/07/06 12:01:23;;;;;;;7.13;1.08;;;22.80;55.70;;;;;;4917985;29;20028;-72
2022/07/06 12:03:49;;;;;;;7.45;1.40;;;23.30;57.20;;;;;;4918268;29;20020;-71
2022/07/06 12:06:22;;;;;;;2.15;0.90;;;23.20;56.10;;;;;;4934876;29;20027;-73
2022/07/06 12:08:52;;;;;;;4.55;1.10;;;23.20;54.80;;;;;;4935009;29;20028;-72
2022/07/06 12:11:30;;;;;;;1.38;0.80;;;22.10;58.50;;;;;;4934873;29;20408;-72
2022/07/06 12:14:00;;;;;;;3.00;1.23;;;21.70;60.10;;;;;;4918941;29;20048;-71
2022/07/06 12:16:34;;;;;;;2.92;0.80;;;21.30;59.60;;;;;;4918289;29;20039;-71
2022/07/06 12:19:00;;;;;;;2.58;1.00;;;21.90;59.10;;;;;;4933874;29;20110;-72
2022/07/06 12:21:25;;;;;;;7.15;1.90;;;22.00;63.40;;;;;;4934811;29;20179;-71
2022/07/06 12:23:51;;;;;;;7.88;1.20;;;21.70;63.10;;;;;;4933755;29;20027;-72
2022/07/06 12:26:19;;;;;;;9.95;1.88;;;22.50;60.90;;;;;;4933571;29;20473;-71
2022/07/06 12:28:44;;;;;;;3.97;1.98;;;23.60;59.00;;;;;;4934920;29;20377;-71
2022/07/06 12:31:10;;;;;;;8.57;1.13;;;23.90;56.50;;;;;;4934746;29;20024;-72
2022/07/06 12:33:36;;;;;;;7.25;1.33;;;24.20;55.80;;;;;;4934680;29;20082;-73
2022/07/06 12:36:15;;;;;;;5.43;0.95;;;23.30;57.40;;;;;;4937884;29;20032;-72
2022/07/06 12:38:49;;;;;;;8.10;1.77;;;23.10;59.00;;;;;;4938258;29;20032;-72
2022/07/06 12:41:28;;;;;;;7.55;1.60;;;23.70;57.00;;;;;;4938196;29;20030;-72
2022/07/06 12:44:04;;;;;;;9.32;3.35;;;24.50;60.50;;;;;;4938195;29;20039;-72
2022/07/06 12:46:31;;;;;;;8.75;2.42;;;24.90;53.60;;;;;;4938069;29;20484;-72
2022/07/06 12:48:57;;;;;;;5.47;1.48;;;24.60;54.80;;;;;;4937016;29;20159;-71
2022/07/06 12:51:22;;;;;;;1.27;0.90;;;24.40;55.90;;;;;;4937998;29;20023;-71
2022/07/06 12:53:48;;;;;;;11.32;1.55;;;23.90;54.30;;;;;;4938061;29;20075;-72